createdAt,value
2016-03-02T00:00:14.260Z,998.66
2016-03-02T00:01:14.262Z,998.55
2016-03-02T00:02:14.281Z,998.57
2016-03-02T00:03:14.284Z,998.54
2016-03-02T00:04:14.286Z,998.49
2016-03-02T00:05:14.289Z,998.47
2016-03-02T00:06:14.292Z,998.49
2016-03-02T00:07:14.310Z,998.48
2016-03-02T00:08:14.297Z,998.41
2016-03-02T00:09:14.315Z,998.4
2016-03-02T00:10:14.317Z,998.35
2016-03-02T00:11:14.336Z,998.3
2016-03-02T00:12:14.322Z,998.33
2016-03-02T00:13:14.342Z,998.33
2016-03-02T00:14:14.344Z,998.25
2016-03-02T00:15:14.347Z,998.25
2016-03-02T00:16:14.350Z,998.22
2016-03-02T00:17:14.352Z,998.23
2016-03-02T00:18:14.371Z,998.17
2016-03-02T00:19:14.374Z,998.19
2016-03-02T00:20:14.377Z,998.18
2016-03-02T00:21:14.379Z,998.19
2016-03-02T00:22:14.396Z,998.2
2016-03-02T00:23:14.400Z,998.12
2016-03-02T00:24:14.402Z,998.17
2016-03-02T00:25:14.405Z,998.19
2016-03-02T00:26:14.424Z,998.12
2016-03-02T00:27:14.426Z,998.16
2016-03-02T00:28:14.429Z,998.17
2016-03-02T00:29:14.431Z,997.99
2016-03-02T00:30:14.435Z,998.05
2016-03-02T00:31:14.437Z,998
2016-03-02T00:32:14.455Z,998.02
2016-03-02T00:33:14.457Z,998.04
2016-03-02T00:34:14.460Z,998.1
2016-03-02T00:35:14.463Z,997.93
2016-03-02T00:36:14.482Z,997.96
2016-03-02T00:37:14.485Z,997.97
2016-03-02T00:38:14.487Z,997.91
2016-03-02T00:39:14.489Z,997.92
2016-03-02T00:40:14.493Z,997.84
2016-03-02T00:41:14.495Z,997.88
2016-03-02T00:42:14.514Z,997.8
2016-03-02T00:43:14.516Z,997.72
2016-03-02T00:44:14.534Z,997.79
2016-03-02T00:45:14.536Z,997.73
2016-03-02T00:46:14.524Z,997.68
2016-03-02T00:47:14.542Z,997.71
2016-03-02T00:48:14.545Z,997.76
2016-03-02T00:49:14.547Z,997.69
2016-03-02T00:50:14.550Z,997.72
2016-03-02T00:51:14.553Z,997.75
2016-03-02T00:52:14.571Z,997.7
2016-03-02T00:53:14.574Z,997.68
2016-03-02T00:54:14.576Z,997.66
2016-03-02T00:55:14.580Z,997.66
2016-03-02T00:56:14.598Z,997.62
2016-03-02T00:57:14.601Z,997.64
2016-03-02T00:58:14.604Z,997.57
2016-03-02T00:59:14.606Z,997.6
2016-03-02T01:00:14.609Z,997.45
2016-03-02T01:01:14.612Z,997.43
2016-03-02T01:02:14.630Z,997.38
2016-03-02T01:03:14.632Z,997.42
2016-03-02T01:04:14.634Z,997.37
2016-03-02T01:05:14.638Z,997.35
2016-03-02T01:06:14.640Z,997.37
2016-03-02T01:07:14.659Z,997.27
2016-03-02T01:08:14.661Z,997.28
2016-03-02T01:09:14.664Z,997.29
2016-03-02T01:10:14.682Z,997.22
2016-03-02T01:11:14.684Z,997.15
2016-03-02T01:12:14.688Z,997.06
2016-03-02T01:13:14.690Z,997.15
2016-03-02T01:14:14.692Z,997.11
2016-03-02T01:15:14.695Z,997.11
2016-03-02T01:16:14.698Z,997.12
2016-03-02T01:17:14.701Z,997.06
2016-03-02T01:18:14.720Z,997.02
2016-03-02T01:19:14.722Z,997.05
2016-03-02T01:20:14.741Z,996.96
2016-03-02T01:21:14.727Z,996.95
2016-03-02T01:22:14.730Z,996.9
2016-03-02T01:23:14.749Z,996.91
2016-03-02T01:24:14.751Z,996.89
2016-03-02T01:25:14.754Z,996.92
2016-03-02T01:26:14.757Z,996.92
2016-03-02T01:27:14.774Z,996.86
2016-03-02T01:28:14.777Z,996.79
2016-03-02T01:29:14.780Z,996.83
2016-03-02T01:30:14.783Z,996.74
2016-03-02T01:31:14.785Z,996.75
2016-03-02T01:32:14.788Z,996.73
2016-03-02T01:33:14.807Z,996.72
2016-03-02T01:34:14.809Z,996.71
2016-03-02T01:35:14.828Z,996.64
2016-03-02T01:36:14.815Z,996.7
2016-03-02T01:37:14.834Z,996.69
2016-03-02T01:38:14.836Z,996.65
2016-03-02T01:39:14.839Z,996.65
2016-03-02T01:40:14.857Z,996.59
2016-03-02T01:41:14.844Z,996.59
2016-03-02T01:42:14.847Z,996.52
2016-03-02T01:43:14.865Z,996.45
2016-03-02T01:44:14.867Z,996.55
2016-03-02T01:45:14.901Z,996.47
2016-03-02T01:46:14.872Z,996.48
2016-03-02T01:47:14.876Z,996.44
2016-03-02T01:48:14.894Z,996.49
2016-03-02T01:49:14.897Z,996.42
2016-03-02T01:50:14.900Z,996.37
2016-03-02T01:51:14.902Z,996.37
2016-03-02T01:52:14.919Z,996.45
2016-03-02T01:53:14.923Z,996.46
2016-03-02T01:54:14.925Z,996.35
2016-03-02T01:55:14.928Z,996.29
2016-03-02T01:56:14.930Z,996.28
2016-03-02T01:57:14.933Z,996.29
2016-03-02T01:58:14.952Z,996.2
2016-03-02T01:59:14.954Z,996.17
2016-03-02T02:00:14.958Z,996.24
2016-03-02T02:01:14.960Z,996.27
2016-03-02T02:02:14.962Z,996.23
2016-03-02T02:03:14.981Z,996.23
2016-03-02T02:04:14.984Z,996.14
2016-03-02T02:05:14.987Z,996.07
2016-03-02T02:06:14.998Z,996.21
2016-03-02T02:07:15.001Z,996.19
2016-03-02T02:08:15.004Z,996.11
2016-03-02T02:09:15.006Z,996.15
2016-03-02T02:10:15.009Z,996.08
2016-03-02T02:11:15.028Z,996.05
2016-03-02T02:12:15.030Z,996.09
2016-03-02T02:13:15.033Z,996.03
2016-03-02T02:14:15.052Z,996.11
2016-03-02T02:15:15.039Z,995.98
2016-03-02T02:16:15.057Z,995.9
2016-03-02T02:17:15.060Z,996.02
2016-03-02T02:18:15.063Z,995.95
2016-03-02T02:19:15.065Z,995.87
2016-03-02T02:20:15.083Z,995.88
2016-03-02T02:21:15.086Z,995.75
2016-03-02T02:22:15.089Z,995.78
2016-03-02T02:23:15.091Z,995.71
2016-03-02T02:24:15.094Z,995.8
2016-03-02T02:25:15.113Z,995.75
2016-03-02T02:26:15.115Z,995.73
2016-03-02T02:27:15.118Z,995.67
2016-03-02T02:28:15.121Z,995.71
2016-03-02T02:29:15.139Z,995.69
2016-03-02T02:30:15.126Z,995.55
2016-03-02T02:31:15.144Z,995.72
2016-03-02T02:32:15.148Z,995.79
2016-03-02T02:33:15.150Z,995.66
2016-03-02T02:34:15.153Z,995.55
2016-03-02T02:35:15.171Z,995.55
2016-03-02T02:36:15.173Z,995.51
2016-03-02T02:37:15.175Z,995.67
2016-03-02T02:38:15.179Z,995.64
2016-03-02T02:39:15.181Z,995.56
2016-03-02T02:40:15.200Z,995.47
2016-03-02T02:41:15.202Z,995.51
2016-03-02T02:42:15.205Z,995.51
2016-03-02T02:43:15.208Z,995.51
2016-03-02T02:44:15.225Z,995.54
2016-03-02T02:45:15.214Z,995.49
2016-03-02T02:46:15.231Z,995.38
2016-03-02T02:47:15.233Z,995.37
2016-03-02T02:48:15.236Z,995.35
2016-03-02T02:49:15.239Z,995.28
2016-03-02T02:50:15.258Z,995.35
2016-03-02T02:51:15.260Z,995.35
2016-03-02T02:52:15.263Z,995.4
2016-03-02T02:53:15.266Z,995.3
2016-03-02T02:54:15.268Z,995.27
2016-03-02T02:55:15.288Z,995.36
2016-03-02T02:56:15.290Z,995.26
2016-03-02T02:57:15.293Z,995.19
2016-03-02T02:58:15.295Z,995.13
2016-03-02T02:59:15.313Z,995.15
2016-03-02T03:00:15.301Z,995.12
2016-03-02T03:01:15.318Z,995.12
2016-03-02T03:02:15.321Z,995.02
2016-03-02T03:03:15.324Z,995.06
2016-03-02T03:04:15.326Z,995.06
2016-03-02T03:05:15.329Z,995.08
2016-03-02T03:06:15.348Z,995.07
2016-03-02T03:07:15.351Z,995.04
2016-03-02T03:08:15.353Z,995.09
2016-03-02T03:09:15.356Z,995.11
2016-03-02T03:10:15.359Z,994.99
2016-03-02T03:11:15.377Z,995.01
2016-03-02T03:12:15.379Z,995.04
2016-03-02T03:13:15.383Z,994.91
2016-03-02T03:14:15.385Z,994.97
2016-03-02T03:16:15.406Z,994.95
2016-03-02T03:17:15.408Z,995.03
2016-03-02T03:18:15.411Z,994.9
2016-03-02T03:19:15.413Z,994.9
2016-03-02T03:20:15.417Z,994.96
2016-03-02T03:21:15.435Z,994.94
2016-03-02T03:22:15.468Z,994.95
2016-03-02T03:23:15.440Z,994.95
2016-03-02T03:24:15.443Z,994.89
2016-03-02T03:25:15.446Z,994.84
2016-03-02T03:26:15.464Z,994.88
2016-03-02T03:27:15.467Z,994.89
2016-03-02T03:28:15.469Z,994.86
2016-03-02T03:29:15.471Z,994.78
2016-03-02T03:30:15.475Z,994.77
2016-03-02T03:31:15.493Z,994.69
2016-03-02T03:32:15.496Z,994.78
2016-03-02T03:33:15.498Z,994.76
2016-03-02T03:34:15.501Z,994.72
2016-03-02T03:35:15.504Z,994.8
2016-03-02T03:36:15.522Z,994.8
2016-03-02T03:37:15.541Z,994.82
2016-03-02T03:38:15.528Z,994.7
2016-03-02T03:39:15.530Z,994.76
2016-03-02T03:40:15.533Z,994.68
2016-03-02T03:41:15.551Z,994.67
2016-03-02T03:42:15.553Z,994.65
2016-03-02T03:43:15.556Z,994.72
2016-03-02T03:44:15.559Z,994.65
2016-03-02T03:45:15.562Z,994.65
2016-03-02T03:46:15.580Z,994.64
2016-03-02T03:47:15.583Z,994.63
2016-03-02T03:48:15.586Z,994.66
2016-03-02T03:49:15.588Z,994.69
2016-03-02T03:50:15.591Z,994.63
2016-03-02T03:51:15.593Z,994.57
2016-03-02T03:52:15.612Z,994.61
2016-03-02T03:53:15.615Z,994.55
2016-03-02T03:54:15.617Z,994.62
2016-03-02T03:55:15.621Z,994.55
2016-03-02T03:56:15.638Z,994.6
2016-03-02T03:57:15.641Z,994.48
2016-03-02T03:58:15.644Z,994.53
2016-03-02T03:59:15.646Z,994.47
2016-03-02T04:00:15.665Z,994.44
2016-03-02T04:01:15.652Z,994.45
2016-03-02T04:02:15.671Z,994.43
2016-03-02T04:03:15.673Z,994.45
2016-03-02T04:04:15.690Z,994.44
2016-03-02T04:05:15.694Z,994.35
2016-03-02T04:06:15.681Z,994.38
2016-03-02T04:07:15.699Z,994.32
2016-03-02T04:08:15.701Z,994.28
2016-03-02T04:09:15.704Z,994.28
2016-03-02T04:10:15.723Z,994.29
2016-03-02T04:11:15.710Z,994.29
2016-03-02T04:12:15.729Z,994.22
2016-03-02T04:13:15.731Z,994.31
2016-03-02T04:14:15.733Z,994.18
2016-03-02T04:15:15.736Z,994.2
2016-03-02T04:16:15.739Z,994.2
2016-03-02T04:17:15.757Z,994.14
2016-03-02T04:18:15.761Z,994.16
2016-03-02T04:19:15.763Z,994.15
2016-03-02T04:20:15.765Z,994.13
2016-03-02T04:21:15.768Z,994.03
2016-03-02T04:22:15.771Z,994.04
2016-03-02T04:23:15.789Z,994.03
2016-03-02T04:24:15.791Z,994.02
2016-03-02T04:25:15.794Z,994.01
2016-03-02T04:26:15.797Z,994.02
2016-03-02T04:27:15.815Z,993.98
2016-03-02T04:28:15.819Z,993.93
2016-03-02T04:29:15.821Z,993.93
2016-03-02T04:30:15.824Z,994
2016-03-02T04:31:15.826Z,993.95
2016-03-02T04:32:15.829Z,993.91
2016-03-02T04:33:15.848Z,993.93
2016-03-02T04:34:15.850Z,993.92
2016-03-02T04:35:15.853Z,993.85
2016-03-02T04:36:15.856Z,993.85
2016-03-02T04:37:15.858Z,993.86
2016-03-02T04:38:15.876Z,993.8
2016-03-02T04:39:15.879Z,993.74
2016-03-02T04:40:15.882Z,993.7
2016-03-02T04:41:15.884Z,993.77
2016-03-02T04:42:15.903Z,993.75
2016-03-02T04:43:15.906Z,993.75
2016-03-02T04:44:15.909Z,993.74
2016-03-02T04:45:15.911Z,993.79
2016-03-02T04:46:15.914Z,993.83
2016-03-02T04:47:15.916Z,993.86
2016-03-02T04:48:15.934Z,993.9
2016-03-02T04:49:15.937Z,993.86
2016-03-02T04:50:15.939Z,993.88
2016-03-02T04:51:15.942Z,993.96
2016-03-02T04:52:15.944Z,993.9
2016-03-02T04:53:15.964Z,993.92
2016-03-02T04:54:15.966Z,993.87
2016-03-02T04:55:15.968Z,993.87
2016-03-02T04:56:15.972Z,993.83
2016-03-02T04:57:15.974Z,993.81
2016-03-02T04:58:15.977Z,993.78
2016-03-02T04:59:15.996Z,993.78
2016-03-02T05:00:15.998Z,993.75
2016-03-02T05:01:16.001Z,993.75
2016-03-02T05:02:16.018Z,993.75
2016-03-02T05:03:16.007Z,993.74
2016-03-02T05:04:16.024Z,993.76
2016-03-02T05:05:16.027Z,993.76
2016-03-02T05:06:16.029Z,993.7
2016-03-02T05:07:16.048Z,993.75
2016-03-02T05:08:16.035Z,993.68
2016-03-02T05:09:16.053Z,993.63
2016-03-02T05:10:16.057Z,993.69
2016-03-02T05:11:16.059Z,993.59
2016-03-02T05:12:16.062Z,993.67
2016-03-02T05:13:16.081Z,993.61
2016-03-02T05:14:16.083Z,993.66
2016-03-02T05:15:16.086Z,993.61
2016-03-02T05:16:16.088Z,993.6
2016-03-02T05:17:16.091Z,993.61
2016-03-02T05:18:16.093Z,993.54
2016-03-02T05:19:16.111Z,993.57
2016-03-02T05:20:16.114Z,993.59
2016-03-02T05:21:16.133Z,993.57
2016-03-02T05:22:16.135Z,993.59
2016-03-02T05:23:16.138Z,993.59
2016-03-02T05:24:16.141Z,993.68
2016-03-02T05:25:16.144Z,993.63
2016-03-02T05:26:16.146Z,993.57
2016-03-02T05:27:16.164Z,993.52
2016-03-02T05:28:16.152Z,993.6
2016-03-02T05:29:16.169Z,993.64
2016-03-02T05:30:16.172Z,993.59
2016-03-02T05:31:16.175Z,993.56
2016-03-02T05:32:16.177Z,993.49
2016-03-02T05:33:16.196Z,993.58
2016-03-02T05:34:16.199Z,993.49
2016-03-02T05:35:16.202Z,993.51
2016-03-02T05:36:16.204Z,993.49
2016-03-02T05:37:16.206Z,993.36
2016-03-02T05:38:16.226Z,993.36
2016-03-02T05:39:16.228Z,993.35
2016-03-02T05:40:16.231Z,993.34
2016-03-02T05:41:16.234Z,993.38
2016-03-02T05:42:16.251Z,993.32
2016-03-02T05:43:16.239Z,993.38
2016-03-02T05:44:16.257Z,993.31
2016-03-02T05:45:16.259Z,993.27
2016-03-02T05:46:16.262Z,993.23
2016-03-02T05:47:16.264Z,993.23
2016-03-02T05:48:16.267Z,993.23
2016-03-02T05:49:16.286Z,993.21
2016-03-02T05:50:16.288Z,993.12
2016-03-02T05:51:16.292Z,993.17
2016-03-02T05:52:16.294Z,993.16
2016-03-02T05:53:16.297Z,993.12
2016-03-02T05:54:16.316Z,993.13
2016-03-02T05:55:16.318Z,993.1
2016-03-02T05:56:16.321Z,993.03
2016-03-02T05:57:16.323Z,993.04
2016-03-02T05:58:16.326Z,993.02
2016-03-02T05:59:16.329Z,993.02
2016-03-02T06:00:16.346Z,993.04
2016-03-02T06:01:16.350Z,992.99
2016-03-02T06:02:16.352Z,992.99
2016-03-02T06:03:16.354Z,993
2016-03-02T06:04:16.357Z,992.99
2016-03-02T06:05:16.376Z,993.02
2016-03-02T06:06:16.379Z,992.98
2016-03-02T06:07:16.381Z,992.97
2016-03-02T06:08:16.384Z,992.98
2016-03-02T06:09:16.402Z,992.97
2016-03-02T06:10:16.404Z,993.09
2016-03-02T06:11:16.408Z,992.97
2016-03-02T06:12:16.410Z,993.08
2016-03-02T06:13:16.413Z,993.17
2016-03-02T06:14:16.431Z,993.28
2016-03-02T06:15:16.434Z,993.16
2016-03-02T06:16:16.437Z,993.1
2016-03-02T06:17:16.439Z,993.25
2016-03-02T06:18:16.442Z,993.11
2016-03-02T06:19:16.461Z,993.08
2016-03-02T06:20:16.463Z,993.07
2016-03-02T06:21:16.466Z,993.05
2016-03-02T06:22:16.469Z,993.04
2016-03-02T06:23:16.471Z,993.1
2016-03-02T06:24:16.474Z,993.08
2016-03-02T06:25:16.492Z,993.08
2016-03-02T06:26:16.494Z,993.05
2016-03-02T06:27:16.497Z,993.06
2016-03-02T06:28:16.499Z,992.98
2016-03-02T06:29:16.503Z,993.01
2016-03-02T06:30:16.521Z,993.07
2016-03-02T06:31:16.524Z,992.92
2016-03-02T06:32:16.527Z,992.94
2016-03-02T06:33:16.529Z,992.91
2016-03-02T06:34:16.532Z,992.94
2016-03-02T06:35:16.551Z,992.9
2016-03-02T06:36:16.553Z,992.77
2016-03-02T06:37:16.556Z,992.81
2016-03-02T06:38:16.559Z,992.74
2016-03-02T06:39:16.562Z,992.68
2016-03-02T06:40:16.564Z,992.73
2016-03-02T06:41:16.582Z,992.67
2016-03-02T06:42:16.584Z,992.65
2016-03-02T06:43:16.588Z,992.68
2016-03-02T06:44:16.590Z,992.64
2016-03-02T06:45:16.655Z,992.58
2016-03-02T06:46:16.611Z,992.61
2016-03-02T06:47:16.614Z,992.6
2016-03-02T06:48:16.632Z,992.58
2016-03-02T06:49:16.635Z,992.62
2016-03-02T06:50:16.637Z,992.57
2016-03-02T06:51:16.639Z,992.66
2016-03-02T06:52:16.642Z,992.57
2016-03-02T06:53:16.645Z,992.51
2016-03-02T06:54:16.648Z,992.41
2016-03-02T06:55:16.651Z,992.47
2016-03-02T06:56:16.669Z,992.42
2016-03-02T06:57:16.672Z,992.41
2016-03-02T06:58:16.674Z,992.44
2016-03-02T06:59:16.694Z,992.5
2016-03-02T07:00:16.680Z,992.39
2016-03-02T07:01:16.683Z,992.41
2016-03-02T07:02:16.701Z,992.36
2016-03-02T07:03:16.705Z,992.37
2016-03-02T07:04:16.707Z,992.3
2016-03-02T07:05:16.709Z,992.32
2016-03-02T07:06:16.727Z,992.29
2016-03-02T07:07:16.730Z,992.32
2016-03-02T07:08:16.733Z,992.26
2016-03-02T07:09:16.736Z,992.22
2016-03-02T07:10:16.738Z,992.25
2016-03-02T07:11:16.741Z,992.16
2016-03-02T07:12:16.743Z,992.17
2016-03-02T07:13:16.763Z,992.13
2016-03-02T07:14:16.765Z,992.16
2016-03-02T07:15:16.767Z,992.11
2016-03-02T07:16:16.771Z,992.17
2016-03-02T07:17:16.773Z,992.13
2016-03-02T07:18:16.792Z,992.06
2016-03-02T07:19:16.794Z,992.1
2016-03-02T07:20:16.797Z,992.08
2016-03-02T07:21:16.831Z,992.15
2016-03-02T07:22:16.817Z,992.12
2016-03-02T07:23:16.820Z,992.11
2016-03-02T07:24:16.823Z,992.18
2016-03-02T07:25:16.826Z,992.14
2016-03-02T07:26:16.828Z,992.1
2016-03-02T07:27:16.832Z,992.02
2016-03-02T07:28:16.850Z,992.05
2016-03-02T07:29:16.853Z,992.06
2016-03-02T07:30:16.856Z,992.12
2016-03-02T07:31:16.873Z,991.97
2016-03-02T07:32:16.861Z,992.03
2016-03-02T07:33:16.878Z,992.02
2016-03-02T07:34:16.882Z,991.92
2016-03-02T07:35:16.885Z,991.95
2016-03-02T07:36:16.887Z,991.91
2016-03-02T07:37:16.906Z,991.89
2016-03-02T07:38:16.908Z,991.88
2016-03-02T07:39:16.911Z,991.84
2016-03-02T07:40:16.913Z,991.88
2016-03-02T07:41:16.916Z,991.87
2016-03-02T07:42:16.919Z,991.93
2016-03-02T07:43:16.937Z,991.91
2016-03-02T07:44:16.941Z,991.91
2016-03-02T07:45:16.943Z,991.84
2016-03-02T07:46:16.946Z,991.89
2016-03-02T07:47:16.948Z,991.88
2016-03-02T07:48:16.951Z,991.93
2016-03-02T07:49:16.969Z,991.84
2016-03-02T07:50:16.972Z,991.83
2016-03-02T07:51:16.990Z,991.84
2016-03-02T07:52:16.976Z,991.84
2016-03-02T07:53:16.979Z,991.79
2016-03-02T07:54:16.998Z,991.74
2016-03-02T07:55:17.000Z,991.74
2016-03-02T07:56:17.003Z,991.72
2016-03-02T07:57:17.006Z,991.77
2016-03-02T07:58:17.009Z,991.74
2016-03-02T07:59:17.027Z,991.72
2016-03-02T08:00:17.030Z,991.73
2016-03-02T08:01:17.033Z,991.66
2016-03-02T08:02:17.035Z,991.78
2016-03-02T08:03:17.053Z,991.64
2016-03-02T08:04:17.056Z,991.68
2016-03-02T08:05:17.059Z,991.7
2016-03-02T08:06:17.062Z,991.68
2016-03-02T08:07:17.064Z,991.71
2016-03-02T08:08:17.083Z,991.71
2016-03-02T08:09:17.086Z,991.68
2016-03-02T08:10:17.088Z,991.69
2016-03-02T08:11:17.091Z,991.64
2016-03-02T08:12:17.109Z,991.61
2016-03-02T08:13:17.112Z,991.64
2016-03-02T08:14:17.114Z,991.68
2016-03-02T08:15:17.116Z,991.55
2016-03-02T08:16:17.119Z,991.54
2016-03-02T08:17:17.122Z,991.51
2016-03-02T08:18:17.141Z,991.57
2016-03-02T08:19:17.144Z,991.56
2016-03-02T08:20:17.163Z,991.48
2016-03-02T08:21:17.165Z,991.44
2016-03-02T08:22:17.168Z,991.52
2016-03-02T08:23:17.170Z,991.51
2016-03-02T08:24:17.173Z,991.47
2016-03-02T08:25:17.190Z,991.4
2016-03-02T08:26:17.193Z,991.43
2016-03-02T08:27:17.196Z,991.41
2016-03-02T08:28:17.199Z,991.42
2016-03-02T08:29:17.218Z,991.41
2016-03-02T08:30:17.220Z,991.39
2016-03-02T08:31:17.223Z,991.32
2016-03-02T08:32:17.226Z,991.34
2016-03-02T08:33:17.244Z,991.4
2016-03-02T08:34:17.247Z,991.49
2016-03-02T08:35:17.249Z,991.25
2016-03-02T08:36:17.252Z,991.31
2016-03-02T08:37:17.245Z,991.29
2016-03-02T08:38:17.249Z,991.25
2016-03-02T08:39:17.249Z,991.23
2016-03-02T08:40:17.236Z,991.29
2016-03-02T08:41:17.239Z,991.24
2016-03-02T08:42:17.227Z,991.24
2016-03-02T08:43:17.203Z,991.19
2016-03-02T08:44:17.215Z,991.22
2016-03-02T08:45:17.275Z,991.26
2016-03-02T08:46:17.226Z,991.14
2016-03-02T08:47:17.223Z,991.16
2016-03-02T08:48:17.223Z,991.29
2016-03-02T08:49:17.239Z,991.11
2016-03-02T08:50:17.239Z,991.09
2016-03-02T08:51:17.241Z,991.09
2016-03-02T08:52:17.241Z,991.14
2016-03-02T08:53:17.258Z,991.05
2016-03-02T08:54:17.260Z,991.09
2016-03-02T08:55:17.262Z,991.24
2016-03-02T08:56:17.264Z,991.12
2016-03-02T08:57:17.266Z,991.1
2016-03-02T08:58:17.283Z,991.09
2016-03-02T08:59:17.287Z,991.05
2016-03-02T09:00:17.289Z,991.01
2016-03-02T09:01:17.291Z,990.97
2016-03-02T09:02:17.310Z,990.97
2016-03-02T09:03:17.313Z,991.05
2016-03-02T09:04:17.315Z,990.98
2016-03-02T09:05:17.318Z,991.07
2016-03-02T09:06:17.337Z,991.13
2016-03-02T09:07:17.340Z,991.07
2016-03-02T09:08:17.343Z,991.04
2016-03-02T09:09:17.360Z,991.01
2016-03-02T09:10:17.363Z,991.03
2016-03-02T09:11:17.365Z,991.05
2016-03-02T09:12:17.368Z,991
2016-03-02T09:13:17.387Z,991.25
2016-03-02T09:14:17.405Z,991.16
2016-03-02T09:15:17.392Z,991.24
2016-03-02T09:16:17.395Z,991.58
2016-03-02T09:17:17.397Z,992.29
2016-03-02T09:18:17.417Z,991.98
2016-03-02T09:19:17.419Z,992.22
2016-03-02T09:20:17.422Z,992.25
2016-03-02T09:21:17.425Z,992.3
2016-03-02T09:22:17.442Z,992.32
2016-03-02T09:23:17.445Z,992.28
2016-03-02T09:24:17.447Z,992.31
2016-03-02T09:25:17.450Z,992.4
2016-03-02T09:26:17.469Z,992.28
2016-03-02T09:27:17.472Z,992.37
2016-03-02T09:28:17.474Z,992.34
2016-03-02T09:29:17.492Z,992.31
2016-03-02T09:30:17.495Z,992.31
2016-03-02T09:31:17.498Z,992.33
2016-03-02T09:32:17.500Z,992.24
2016-03-02T09:33:17.503Z,992.27
2016-03-02T09:34:17.521Z,992.2
2016-03-02T09:35:17.524Z,992.2
2016-03-02T09:36:17.527Z,992.19
2016-03-02T09:37:17.529Z,992.24
2016-03-02T09:38:17.549Z,992.25
2016-03-02T09:39:17.551Z,992.35
2016-03-02T09:40:17.554Z,992.33
2016-03-02T09:41:17.557Z,992.46
2016-03-02T09:42:17.559Z,992.43
2016-03-02T09:43:17.577Z,992.41
2016-03-02T09:44:17.579Z,992.56
2016-03-02T09:45:17.582Z,992.55
2016-03-02T09:46:17.584Z,992.63
2016-03-02T09:47:17.603Z,992.64
2016-03-02T09:48:17.606Z,992.61
2016-03-02T09:49:17.608Z,992.71
2016-03-02T09:50:17.627Z,992.74
2016-03-02T09:51:17.630Z,992.87
2016-03-02T09:52:17.633Z,992.81
2016-03-02T09:53:17.636Z,992.85
2016-03-02T09:54:17.653Z,992.88
2016-03-02T09:55:17.656Z,992.84
2016-03-02T09:56:17.658Z,992.94
2016-03-02T09:57:17.661Z,992.94
2016-03-02T09:58:17.679Z,992.91
2016-03-02T09:59:17.682Z,992.91
2016-03-02T10:00:17.685Z,992.92
2016-03-02T10:01:17.688Z,993
2016-03-02T10:02:17.705Z,993.02
2016-03-02T10:03:17.709Z,992.91
2016-03-02T10:04:17.711Z,992.92
2016-03-02T10:05:17.714Z,992.92
2016-03-02T10:06:17.732Z,992.84
2016-03-02T10:07:17.735Z,992.72
2016-03-02T10:08:17.738Z,992.75
2016-03-02T10:09:17.740Z,992.69
2016-03-02T10:10:17.760Z,992.69
2016-03-02T10:11:17.762Z,992.76
2016-03-02T10:12:17.765Z,992.81
2016-03-02T10:13:17.767Z,992.81
2016-03-02T10:14:17.770Z,992.87
2016-03-02T10:16:17.790Z,992.81
2016-03-02T10:17:17.809Z,992.83
2016-03-02T10:18:17.811Z,992.86
2016-03-02T10:19:17.814Z,992.9
2016-03-02T10:20:17.817Z,992.96
2016-03-02T10:21:17.836Z,992.96
2016-03-02T10:22:17.839Z,993.01
2016-03-02T10:23:17.841Z,992.99
2016-03-02T10:24:17.844Z,993.03
2016-03-02T10:25:17.862Z,993.03
2016-03-02T10:26:17.864Z,993.02
2016-03-02T10:27:17.883Z,992.97
2016-03-02T10:28:17.869Z,992.97
2016-03-02T10:29:17.888Z,993.04
2016-03-02T10:30:17.891Z,993.05
2016-03-02T10:31:17.894Z,993.1
2016-03-02T10:32:17.897Z,993.13
2016-03-02T10:33:17.914Z,993.27
2016-03-02T10:34:17.917Z,993.15
2016-03-02T10:35:17.919Z,993.12
2016-03-02T10:36:17.922Z,993.04
2016-03-02T10:37:17.940Z,993.07
2016-03-02T10:38:17.944Z,993.01
2016-03-02T10:39:17.946Z,993.04
2016-03-02T10:40:17.965Z,993.03
2016-03-02T10:41:17.968Z,993
2016-03-02T10:42:17.971Z,992.97
2016-03-02T10:43:17.973Z,992.95
2016-03-02T10:44:17.991Z,992.94
2016-03-02T10:45:17.993Z,992.94
2016-03-02T10:46:18.012Z,992.89
2016-03-02T10:47:17.999Z,992.9
2016-03-02T10:48:18.017Z,992.91
2016-03-02T10:49:18.020Z,992.91
2016-03-02T10:50:18.023Z,992.91
2016-03-02T10:51:18.025Z,992.93
2016-03-02T10:52:18.044Z,992.97
2016-03-02T10:53:18.047Z,992.92
2016-03-02T10:54:18.049Z,992.9
2016-03-02T10:55:18.052Z,992.94
2016-03-02T10:56:18.070Z,992.98
2016-03-02T10:57:18.073Z,992.94
2016-03-02T10:58:18.076Z,992.96
2016-03-02T10:59:18.078Z,992.87
2016-03-02T11:00:18.097Z,992.84
2016-03-02T11:01:18.099Z,992.81
2016-03-02T11:02:18.117Z,992.79
2016-03-02T11:03:18.120Z,992.86
2016-03-02T11:04:18.122Z,992.86
2016-03-02T11:05:18.126Z,992.88
2016-03-02T11:06:18.128Z,992.87
2016-03-02T11:07:18.146Z,992.89
2016-03-02T11:08:18.150Z,992.93
2016-03-02T11:09:18.152Z,993
2016-03-02T11:10:18.170Z,992.95
2016-03-02T11:11:18.173Z,992.95
2016-03-02T11:12:18.176Z,992.89
2016-03-02T11:13:18.179Z,992.91
2016-03-02T11:14:18.196Z,992.88
2016-03-02T11:15:18.199Z,992.95
2016-03-02T11:16:18.202Z,992.85
2016-03-02T11:17:18.204Z,992.86
2016-03-02T11:18:18.223Z,992.88
2016-03-02T11:19:18.226Z,992.88
2016-03-02T11:20:18.229Z,992.87
2016-03-02T11:21:18.231Z,992.84
2016-03-02T11:22:18.234Z,992.93
2016-03-02T11:23:18.252Z,992.84
2016-03-02T11:24:18.255Z,992.89
2016-03-02T11:25:18.258Z,992.9
2016-03-02T11:26:18.276Z,992.84
2016-03-02T11:27:18.279Z,992.84
2016-03-02T11:28:18.281Z,992.78
2016-03-02T11:29:18.284Z,992.73
2016-03-02T11:30:18.302Z,992.75
2016-03-02T11:31:18.305Z,992.68
2016-03-02T11:32:18.308Z,992.67
2016-03-02T11:33:18.311Z,992.65
2016-03-02T11:34:18.313Z,992.62
2016-03-02T11:35:18.331Z,992.63
2016-03-02T11:36:18.334Z,992.64
2016-03-02T11:37:18.336Z,992.64
2016-03-02T11:38:18.355Z,992.65
2016-03-02T11:39:18.358Z,992.59
2016-03-02T11:40:18.361Z,992.69
2016-03-02T11:41:18.363Z,992.62
2016-03-02T11:42:18.381Z,992.66
2016-03-02T11:43:18.384Z,992.54
2016-03-02T11:44:18.402Z,992.56
2016-03-02T11:45:18.405Z,992.56
2016-03-02T11:46:18.408Z,992.51
2016-03-02T11:47:18.410Z,992.5
2016-03-02T11:48:18.413Z,992.5
2016-03-02T11:49:18.415Z,992.49
2016-03-02T11:50:18.434Z,992.44
2016-03-02T11:51:18.437Z,992.39
2016-03-02T11:52:18.439Z,992.37
2016-03-02T11:53:18.459Z,992.39
2016-03-02T11:54:18.461Z,992.34
2016-03-02T11:55:18.464Z,992.31
2016-03-02T11:56:18.466Z,992.39
2016-03-02T11:57:18.469Z,992.25
2016-03-02T11:58:18.487Z,992.3
2016-03-02T11:59:18.489Z,992.24
2016-03-02T12:00:18.492Z,992.18
2016-03-02T12:01:18.495Z,992.26
2016-03-02T12:02:18.513Z,992.26
2016-03-02T12:03:18.517Z,992.23
2016-03-02T12:04:18.534Z,992.3
2016-03-02T12:05:18.533Z,992.31
2016-03-02T12:06:18.536Z,992.31
2016-03-02T12:07:18.539Z,992.31
2016-03-02T12:08:18.542Z,992.25
2016-03-02T12:09:18.560Z,992.3
2016-03-02T12:10:18.562Z,992.21
2016-03-02T12:11:18.565Z,992.18
2016-03-02T12:12:18.568Z,992.19
2016-03-02T12:13:18.586Z,992.19
2016-03-02T12:14:18.589Z,992.07
2016-03-02T12:15:18.591Z,992.1
2016-03-02T12:16:18.595Z,992.04
2016-03-02T12:17:18.612Z,992.05
2016-03-02T12:18:18.615Z,992.01
2016-03-02T12:19:18.617Z,992
2016-03-02T12:20:18.636Z,991.96
2016-03-02T12:21:18.655Z,991.94
2016-03-02T12:22:18.658Z,992
2016-03-02T12:23:18.644Z,991.97
2016-03-02T12:24:18.663Z,991.97
2016-03-02T12:25:18.666Z,991.94
2016-03-02T12:26:18.668Z,991.89
2016-03-02T12:27:18.686Z,991.89
2016-03-02T12:28:18.688Z,991.87
2016-03-02T12:29:18.691Z,991.9
2016-03-02T12:30:18.694Z,991.87
2016-03-02T12:31:18.696Z,991.78
2016-03-02T12:32:18.715Z,991.7
2016-03-02T12:33:18.718Z,991.75